Iowa Falls Municipal Airport
Saturday 6:55 PM
Weather Rain
VFR
Temperature 70°
Dew Point 65°
Feels Like 70°
Relative Humidity 85
%
Visibility 10
mi
Pressure 1020.3
mb
Wind Direction ESE
Wind Speed 6
mph
Last Hour Precip 0.00
"
KIFA 202355Z AUTO 11005KT 10SM -RA SCT028 SCT036 BKN041 21/19 A3013 RMK AO2 60005 T02120185 10230 20205

Recent Observations

Time Present Weather Temp DP Feels RH% Vsby Pressure Ceiling Direction Speed Gust 1h Precip
6:55PM
VFR
-RA 70° 65° 70° 85
%
10
mi
1020.3
mb
4100
ft
ESE 6
mph
0.00"
KIFA 202355Z AUTO 11005KT 10SM -RA SCT028 SCT036 BKN041 21/19 A3013 RMK AO2 60005 T02120185 10230 20205
6:35PM
VFR
70° 64° 70° 82
%
10
mi
1020.3
mb
None SE 5
mph
0.00"
KIFA 202335Z AUTO 13004KT 10SM SCT120 21/18 A3013 RMK AO2 T02100179
6:15PM
VFR
70° 64° 70° 82
%
10
mi
1020.7
mb
None SE 3
mph
0.00"
KIFA 202315Z AUTO 14003KT 10SM SCT045 SCT120 21/18 A3014 RMK AO2 T02120180
5:55PM
VFR
-DZ 71° 65° 71° 83
%
10
mi
1021.0
mb
4800
ft
SE 3
mph
0.00"
KIFA 202255Z AUTO 13003KT 10SM -DZ SCT033 SCT042 BKN048 22/19 A3015 RMK AO2 T02150185
5:35PM
VFR
-RA 70° 64° 70° 82
%
10
mi
1021.3
mb
4500
ft
None Calm 0.00"
KIFA 202235Z AUTO 00000KT 10SM -RA SCT033 BKN045 OVC110 21/18 A3016 RMK AO2 T02100178
5:15PM
VFR
69° 65° 69° 85
%
10
mi
1021.3
mb
4400
ft
None Calm 0.00"
KIFA 202215Z AUTO 00000KT 10SM BKN044 BKN090 OVC110 21/18 A3016 RMK AO2 T02080181
4:55PM
VFR
-DZ 69° 65° 69° 87
%
10
mi
1021.3
mb
4200
ft
S 5
mph
0.05"
KIFA 202155Z AUTO 19004KT 10SM -DZ OVC042 21/18 A3016 RMK AO2 P0005 T02060183
4:35PM
VFR
RA 69° 65° 69° 86
%
5
mi
1021.3
mb
4200
ft
None Calm 0.03"
KIFA 202135Z AUTO 00000KT 5SM RA OVC042 21/18 A3016 RMK AO2 P0003 T02050181
4:15PM
VFR
-RA 69° 64° 69° 83
%
5
mi
1021.7
mb
4200
ft
SSW 6
mph
0.00"
KIFA 202115Z AUTO 20005KT 5SM -RA SCT014 OVC042 21/18 A3017 RMK AO2 T02080178
3:55PM
VFR
70° 64° 70° 82
%
10
mi
1021.7
mb
4200
ft
SSW 5
mph
0.00"
KIFA 202055Z AUTO 20004KT 10SM OVC042 21/18 A3017 RMK AO2 T02110179
3:35PM
VFR
-RA 71° 64° 71° 79
%
10
mi
1021.7
mb
4400
ft
SSW 7
mph
0.00"
KIFA 202035Z AUTO 20006KT 10SM -RA SCT015 SCT020 OVC044 22/18 A3017 RMK AO2 T02150178
3:15PM
MVFR
72° 64° 72° 77
%
10
mi
1021.3
mb
2000
ft
SSW 8
mph
0.00"
KIFA 202015Z AUTO 20007KT 10SM SCT015 BKN020 OVC048 22/18 A3016 RMK AO2 T02210179
2:55PM
VFR
73° 64° 73° 74
%
10
mi
1021.3
mb
3800
ft
SSW 7
mph
0.00"
KIFA 201955Z AUTO 21006KT 10SM SCT016 BKN038 OVC050 23/18 A3016 RMK AO2 T02290180
2:35PM
MVFR
72° 64° 72° 76
%
10
mi
1021.3
mb
2400
ft
S 8
mph
0.00"
KIFA 201935Z AUTO 19007KT 10SM SCT016 BKN024 OVC038 22/18 A3016 RMK AO2 T02240179
2:15PM
MVFR
73° 64° 73° 71
%
10
mi
1021.7
mb
1800
ft
S 3
mph
0.00"
KIFA 201915Z AUTO 18003KT 10SM BKN018 BKN022 OVC049 23/18 A3017 RMK AO2 T02300175
1:55PM
MVFR
73° 63° 73° 70
%
10
mi
1021.7
mb
1600
ft
SSW 7
mph
0.00"
KIFA 201855Z AUTO 21006KT 10SM BKN016 BKN031 OVC049 23/17 A3017 RMK AO2 T02280171
1:35PM
VFR
72° 64° 72° 75
%
10
mi
1021.7
mb
4900
ft
SW 5
mph
0.00"
KIFA 201835Z AUTO 23004KT 10SM SCT016 SCT026 OVC049 22/18 A3017 RMK AO2 T02210175
1:15PM
MVFR
72° 65° 72° 79
%
10
mi
1022.0
mb
2000
ft
SSW 6
mph
0.00"
KIFA 201815Z AUTO 20005KT 10SM SCT012 BKN020 OVC049 22/18 A3018 RMK AO2 T02200181
12:55PM
MVFR
70° 64° 70° 81
%
10
mi
1022.0
mb
1200
ft
SSW 6
mph
0.00"
KIFA 201755Z AUTO 21005KT 10SM BKN012 BKN018 OVC049 21/18 A3018 RMK AO2 60001 T02120178 10212 20175
12:35PM
MVFR
70° 64° 70° 83
%
10
mi
1022.0
mb
1200
ft
SSW 3
mph
0.00"
KIFA 201735Z AUTO 20003KT 10SM BKN012 OVC018 21/18 A3018 RMK AO2 T02100180
Click here to show this page without METARs/TAFs included